Latest Weather Observations for Minnipa RS

IDS60801

Issued at 8:05 am CDT Wednesday 22 October 2014 (issued every 30 minutes, with the page automatically refreshed every 10 minutes)

About weather observations | Map of weather stations | Latest weather observations for SA | Other Formats
Station Details ID: 018195 Name: MINNIPA PIRSA Lat: -32.84 Lon: 135.15 Height: 165.0 m
Data from the previous 72 hours. | See also: Recent months at Minnipa RS
Date/Time
CDT
Temp
°C
App
Temp
°C
Dew
Point
Rel
Hum
%
Delta-T
°C
Wind Press
QNH
hPa
Press
MSL
hPa
Rain
since 9 am
mm
Dir
 
Spd
km/h
Gust
km/h
Spd
kts
Gust
kts
22/08:00am 14.3 11.6 12.9 91 0.8 S 19 24 10 13 1020.6 - 0.0
22/07:30am 13.9 11.2 13.0 94 0.5 S 19 26 10 14 1020.3 - 0.0
22/07:00am 13.7 11.3 12.8 94 0.5 S 17 24 9 13 1020.0 - 0.0
22/06:30am 13.5 11.5 12.6 94 0.5 S 15 22 8 12 1019.7 - 0.0
22/06:00am 13.1 10.9 12.0 93 0.6 S 15 20 8 11 1019.3 1019.0 0.0
22/05:30am 13.2 10.9 11.9 92 0.7 S 15 19 8 10 1019.2 - 0.0
22/05:00am 13.5 11.3 12.1 91 0.8 S 15 20 8 11 1019.2 - 0.0
22/04:30am 13.7 11.6 12.3 91 0.8 SSW 15 20 8 11 1019.1 - 0.0
22/04:00am 13.6 11.3 11.8 89 1.0 SSW 15 20 8 11 1019.0 - 0.0
22/03:30am 13.7 11.8 11.7 88 1.1 SSW 13 17 7 9 1019.2 - 0.0
22/03:00am 14.2 11.8 11.4 83 1.5 S 15 19 8 10 1019.1 1018.8 0.0
22/02:30am 14.3 12.2 11.3 82 1.6 S 13 17 7 9 1019.3 - 0.0
22/02:00am 14.3 12.2 11.1 81 1.7 S 13 15 7 8 1019.4 - 0.0
22/01:30am 14.7 12.6 11.1 79 1.9 S 13 15 7 8 1019.7 - 0.0
22/01:00am 15.0 13.4 11.6 80 1.8 SSW 11 13 6 7 1019.8 - 0.0
22/12:30am 15.6 13.4 12.0 79 2.0 S 15 19 8 10 1019.6 - 0.0
22/12:00am 15.9 13.5 12.5 80 1.9 SSW 17 22 9 12 1019.7 1019.4 0.0
 
Date/Time
CDT
Temp
°C
App
Temp
°C
Dew
Point
Rel
Hum
%
Delta-T
°C
Wind Press
QNH
hPa
Press
MSL
hPa
Rain
since 9 am
mm
Dir
 
Spd
km/h
Gust
km/h
Spd
kts
Gust
kts
21/11:30pm 16.4 13.6 12.6 78 2.1 SSW 19 24 10 13 1020.0 - 0.0
21/11:00pm 17.2 14.1 12.1 72 2.8 SW 20 33 11 18 1019.5 - 0.0
21/10:30pm 18.5 14.6 9.6 56 4.7 SW 20 28 11 15 1019.3 - 0.0
21/10:00pm 19.5 16.0 5.6 40 6.9 SSW 13 17 7 9 1018.7 - 0.0
21/09:30pm 20.1 16.8 4.6 36 7.6 SSW 11 13 6 7 1018.3 - 0.0
21/09:00pm 20.8 17.4 4.0 33 8.1 SSW 11 13 6 7 1017.7 1017.4 0.0
21/08:30pm 21.9 18.4 3.6 30 8.9 SSW 11 15 6 8 1017.3 - 0.0
21/08:00pm 23.7 19.5 3.6 27 9.9 SW 15 19 8 10 1017.0 - 0.0
21/07:30pm 25.7 21.1 3.6 24 11.0 SSW 17 22 9 12 1016.6 - 0.0
21/07:00pm 27.4 22.8 3.8 22 11.9 SSW 17 24 9 13 1016.2 - 0.0
21/06:30pm 29.3 22.5 3.3 19 13.2 SW 28 35 15 19 1015.7 - 0.0
21/06:26pm 30.3 24.9 2.5 17 14.0 WSW 20 28 11 15 1015.7 - 0.0
21/06:00pm 35.3 28.2 -0.9 10 17.8 N 26 39 14 21 1015.2 1014.9 0.0
21/05:30pm 35.9 28.0 -1.9 9 18.3 N 30 48 16 26 1015.1 - 0.0
21/05:27pm 36.2 28.7 -1.7 9 18.5 N 28 48 15 26 1015.0 - 0.0
21/05:00pm 34.2 30.3 -1.7 10 17.3 NW 9 19 5 10 1014.8 - 0.0
21/04:30pm 33.1 28.7 -2.6 10 16.8 WNW 11 17 6 9 1015.3 - 0.0
21/04:00pm 33.8 27.9 -2.0 10 17.1 WNW 19 32 10 17 1015.2 - 0.0
21/03:30pm 34.9 28.0 -2.6 9 17.9 NNW 24 35 13 19 1015.7 - 0.0
21/03:00pm 35.6 29.1 -2.1 9 18.2 NNW 22 32 12 17 1015.6 1015.3 0.0
21/02:30pm 37.3 30.1 -2.4 8 19.3 NNW 26 39 14 21 1016.0 - 0.0
21/02:00pm 35.5 27.9 -2.2 9 18.2 N 28 39 15 21 1016.5 - 0.0
21/01:30pm 35.2 27.6 -2.4 9 18.0 NNW 28 44 15 24 1016.9 - 0.0
21/01:00pm 34.8 26.8 -2.7 9 17.8 NNW 30 46 16 25 1017.2 - 0.0
21/12:30pm 34.2 27.0 -1.7 10 17.3 N 26 41 14 22 1017.6 - 0.0
21/12:00pm 33.4 26.2 -2.3 10 16.9 NNW 26 41 14 22 1018.0 1017.7 0.0
21/11:30am 33.9 27.5 -2.0 10 17.2 NNW 22 32 12 17 1018.4 - 0.0
21/11:00am 33.2 26.7 -2.5 10 16.8 N 22 33 12 18 1018.5 - 0.0
21/10:30am 32.3 25.1 -1.9 11 16.2 N 26 35 14 19 1018.5 - 0.0
21/10:00am 31.7 24.8 -2.3 11 15.9 N 24 35 13 19 1018.3 - 0.0
21/09:30am 30.6 24.5 -2.0 12 15.2 N 20 30 11 16 1018.3 - 0.0
21/09:00am 28.6 22.1 -2.5 13 14.1 N 22 32 12 17 1018.0 1017.7 0.0
21/08:30am 26.6 20.4 -3.1 14 13.2 NNE 20 26 11 14 1017.6 - 0.0
21/08:00am 25.1 19.1 -3.3 15 12.4 NNE 19 24 10 13 1017.5 - 0.0
21/07:30am 25.0 18.7 -4.3 14 12.5 NNE 20 28 11 15 1017.2 - 0.0
21/07:00am 24.8 18.1 -4.5 14 12.5 NNE 22 30 12 16 1016.7 - 0.0
21/06:30am 24.6 18.2 -4.6 14 12.4 NNE 20 26 11 14 1016.1 - 0.0
21/06:00am 25.4 18.6 -5.0 13 12.9 NNE 22 28 12 15 1015.9 1015.7 0.0
21/05:30am 25.4 18.6 -5.0 13 12.9 NNE 22 28 12 15 1015.8 - 0.0
21/05:00am 25.6 18.8 -4.8 13 13.0 NNE 22 30 12 16 1015.7 - 0.0
21/04:30am 25.2 18.8 -5.1 13 12.8 NNE 20 28 11 15 1015.7 - 0.0
21/04:00am 25.2 18.8 -5.1 13 12.8 NE 20 26 11 14 1015.6 - 0.0
21/03:30am 24.8 18.3 -5.5 13 12.7 NE 20 24 11 13 1015.7 - 0.0
21/03:00am 21.9 15.2 -7.7 13 11.5 ENE 20 24 11 13 1015.6 1015.3 0.0
21/02:30am 22.0 15.5 -7.6 13 11.6 ENE 19 22 10 12 1015.6 - 0.0
21/02:00am 21.9 15.2 -7.7 13 11.5 ENE 20 24 11 13 1015.8 - 0.0
21/01:30am 22.3 15.6 -8.4 12 11.8 ENE 20 24 11 13 1016.1 - 0.0
21/01:00am 23.4 16.6 -8.7 11 12.4 ENE 20 24 11 13 1016.2 - 0.0
21/12:30am 23.2 16.6 -8.9 11 12.4 ENE 19 22 10 12 1016.4 - 0.0
21/12:00am 24.7 17.9 -8.9 10 13.1 ENE 20 24 11 13 1016.8 1016.6 0.0
 
Date/Time
CDT
Temp
°C
App
Temp
°C
Dew
Point
Rel
Hum
%
Delta-T
°C
Wind Press
QNH
hPa
Press
MSL
hPa
Rain
since 9 am
mm
Dir
 
Spd
km/h
Gust
km/h
Spd
kts
Gust
kts
20/11:30pm 24.4 17.8 -9.1 10 13.0 ENE 19 20 10 11 1017.1 - 0.0
20/11:00pm 25.0 18.4 -8.7 10 13.3 ENE 19 22 10 12 1017.2 - 0.0
20/10:30pm 25.7 19.2 -8.2 10 13.6 ENE 19 20 10 11 1017.5 - 0.0
20/10:00pm 27.0 20.8 -8.5 9 14.3 ENE 17 20 9 11 1017.6 - 0.0
20/09:30pm 26.8 20.6 -8.7 9 14.2 ENE 17 19 9 10 1017.3 - 0.0
20/09:00pm 26.6 20.4 -8.8 9 14.1 ENE 17 26 9 14 1017.2 1017.0 0.0
20/08:30pm 27.5 21.2 -9.7 8 14.8 ENE 17 19 9 10 1017.0 - 0.0
20/08:00pm 28.1 22.1 -10.9 7 15.2 ENE 15 17 8 9 1016.8 - 0.0
20/07:30pm 30.0 24.5 -9.5 7 16.1 ENE 13 13 7 7 1016.5 - 0.0
20/07:00pm 31.3 26.1 -10.5 6 17.0 NE 11 15 6 8 1016.3 - 0.0
20/06:30pm 35.0 30.2 -10.2 5 19.1 ENE 9 13 5 7 1016.2 - 0.0
20/06:00pm 34.8 30.0 -10.3 5 18.9 N 9 17 5 9 1016.2 1016.0 0.0
20/05:30pm 36.0 30.7 -12.3 4 19.9 N 11 17 6 9 1016.3 - 0.0
20/05:00pm 36.2 31.1 -9.4 5 19.7 NNE 11 24 6 13 1016.4 - 0.0
20/04:30pm 36.5 30.3 -9.2 5 19.8 N 17 26 9 14 1016.8 - 0.0
20/04:00pm 36.4 30.6 -9.2 5 19.8 N 15 28 8 15 1016.8 - 0.0
20/03:30pm 36.5 29.3 -9.2 5 19.8 N 22 37 12 20 1017.1 - 0.0
20/03:00pm 36.5 28.9 -9.2 5 19.8 N 24 32 13 17 1017.5 1017.2 0.0
20/02:30pm 36.2 30.0 -9.4 5 19.7 N 17 28 9 15 1018.0 - 0.0
20/02:00pm 35.9 29.3 -9.6 5 19.5 NNW 19 32 10 17 1018.5 - 0.0
20/01:30pm 35.7 29.1 -7.4 6 19.1 N 20 30 11 16 1018.9 - 0.0
20/01:00pm 35.5 27.3 -7.5 6 19.0 N 28 41 15 22 1019.4 - 0.0
20/12:30pm 35.1 27.8 -5.8 7 18.5 NNE 24 37 13 20 1019.7 - 0.0
20/12:00pm 34.8 28.1 -8.0 6 18.6 NNE 20 37 11 20 1020.2 1019.9 0.0
20/11:30am 32.9 26.6 -4.1 9 17.0 NNE 20 30 11 16 1020.7 - 0.0
20/11:00am 31.6 25.8 -1.2 12 15.6 NE 19 26 10 14 1021.1 - 0.0
20/10:30am 30.7 25.0 -0.8 13 15.0 NE 19 26 10 14 1021.3 - 0.0
20/10:00am 28.4 22.8 1.0 17 13.3 NE 20 24 11 13 1021.2 - 0.0
20/09:30am 26.0 19.8 2.0 21 11.6 ENE 24 30 13 16 1021.0 - 0.0
20/09:00am 23.3 17.5 4.3 29 9.4 ENE 24 30 13 16 1020.8 1020.5 0.0
20/08:30am 20.5 14.6 4.1 34 8.0 ENE 24 28 13 15 1020.6 - 0.0
20/08:00am 18.4 12.9 4.2 39 6.8 ENE 22 28 12 15 1020.3 - 0.0
20/07:30am 16.6 10.8 4.6 45 5.7 ENE 24 28 13 15 1020.0 - 0.0
20/07:00am 16.0 10.3 5.0 48 5.3 ENE 24 30 13 16 1019.7 - 0.0
20/06:30am 15.6 9.6 5.2 50 5.0 ENE 26 30 14 16 1019.4 - 0.0
20/06:00am 15.9 9.9 5.5 50 5.0 ENE 26 32 14 17 1019.2 1018.9 0.0
20/05:30am 16.5 10.5 5.5 48 5.3 ENE 26 30 14 16 1019.0 - 0.0
20/05:00am 17.3 11.7 5.6 46 5.7 E 24 28 13 15 1019.0 - 0.0
20/04:30am 17.2 11.7 6.1 48 5.5 E 24 28 13 15 1019.0 - 0.0
20/04:00am 17.0 12.0 6.5 50 5.2 E 22 28 12 15 1018.9 - 0.0
20/03:30am 16.6 12.1 7.0 53 4.8 E 20 24 11 13 1019.1 - 0.0
20/03:00am 16.2 12.0 7.4 56 4.4 E 19 24 10 13 1019.3 1019.0 0.0
20/02:30am 17.3 13.0 6.8 50 5.3 E 19 24 10 13 1019.6 - 0.0
20/02:00am 16.4 12.5 7.3 55 4.6 E 17 20 9 11 1019.8 - 0.0
20/01:30am 16.5 12.5 6.6 52 4.9 E 17 20 9 11 1020.0 - 0.0
20/01:00am 18.3 13.5 5.5 43 6.3 E 20 28 11 15 1020.0 - 0.0
20/12:30am 17.9 13.0 6.7 48 5.6 ENE 22 30 12 16 1020.0 - 0.0
20/12:00am 18.5 13.6 6.7 46 5.9 E 22 32 12 17 1020.3 1020.0 0.0
 
Date/Time
CDT
Temp
°C
App
Temp
°C
Dew
Point
Rel
Hum
%
Delta-T
°C
Wind Press
QNH
hPa
Press
MSL
hPa
Rain
since 9 am
mm
Dir
 
Spd
km/h
Gust
km/h
Spd
kts
Gust
kts
19/11:30pm 19.2 14.6 6.7 44 6.3 E 20 26 11 14 1020.6 - 0.0
19/11:00pm 19.9 14.9 4.4 36 7.5 ESE 20 26 11 14 1020.7 - 0.0
19/10:30pm 20.9 15.4 1.7 28 8.9 ESE 20 28 11 15 1020.7 - 0.0
19/10:00pm 22.2 16.0 -0.5 22 10.2 ESE 22 30 12 16 1020.6 - 0.0
19/09:30pm 23.2 16.5 -1.0 20 10.9 ESE 24 33 13 18 1020.3 - 0.0
19/09:00pm 24.4 17.4 -0.7 19 11.4 SE 26 35 14 19 1019.9 1019.6 0.0
19/08:30pm 25.6 18.5 -1.2 17 12.2 ESE 26 41 14 22 1019.5 - 0.0
19/08:00pm 27.3 20.2 -1.6 15 13.2 SE 26 33 14 18 1019.2 - 0.0
19/07:30pm 28.0 24.5 -3.0 13 13.9 W 6 9 3 5 1018.5 - 0.0
19/07:00pm 29.7 25.6 -6.5 9 15.5 E 7 9 4 5 1018.1 - 0.0
19/06:30pm 31.8 27.2 -8.2 7 17.0 E 9 11 5 6 1017.7 - 0.0
19/06:00pm 34.0 29.9 -8.6 6 18.2 ENE 6 7 3 4 1017.6 1017.3 0.0
19/05:30pm 33.9 29.2 -8.7 6 18.2 NE 9 15 5 8 1017.3 - 0.0
19/05:00pm 34.7 29.5 -10.4 5 18.9 ENE 11 17 6 9 1017.2 - 0.0
19/04:30pm 35.5 31.1 -9.9 5 19.3 NNE 7 17 4 9 1017.3 - 0.0
19/04:00pm 35.2 29.7 -10.1 5 19.2 WNW 13 20 7 11 1017.6 - 0.0
19/03:30pm 35.0 30.2 -10.2 5 19.1 NNW 9 17 5 9 1017.8 - 0.0
19/03:00pm 35.2 30.0 -10.1 5 19.1 NW 11 20 6 11 1018.2 1017.9 0.0
19/02:30pm 34.2 29.2 -8.5 6 18.4 NE 11 17 6 9 1018.5 - 0.0
19/02:00pm 33.9 28.5 -8.7 6 18.2 NNW 13 20 7 11 1018.9 - 0.0
19/01:30pm 34.4 29.0 -8.3 6 18.5 NNW 13 24 7 13 1019.0 - 0.0
19/01:00pm 33.7 27.7 -6.8 7 17.9 NNE 17 28 9 15 1019.2 - 0.0
19/12:30pm 33.6 27.0 -6.9 7 17.8 N 20 32 11 17 1019.3 - 0.0
19/12:00pm 32.5 25.8 -7.7 7 17.2 N 20 32 11 17 1019.6 1019.3 0.0
19/11:30am 31.5 24.2 -6.7 8 16.6 N 24 33 13 18 1019.8 - 0.0
19/11:00am 30.0 21.9 -6.3 9 15.7 N 28 35 15 19 1020.0 - 0.0
19/10:30am 30.3 22.3 -6.1 9 15.8 N 28 39 15 21 1020.0 - 0.0
19/10:00am 28.7 21.1 -5.9 10 14.9 N 26 35 14 19 1020.0 - 0.0
19/09:30am 28.0 20.7 -6.4 10 14.6 N 24 37 13 20 1019.8 - 0.0
19/09:00am 26.4 19.1 -6.4 11 13.6 N 24 33 13 18 1019.6 1019.3 0.0
19/08:30am 24.9 18.4 -6.4 12 12.9 N 20 28 11 15 1019.4 - 0.0

Other Formats:

Comma delimited format used in spreadsheet applications
http://www.bom.gov.au/fwo/IDS60801/IDS60801.95662.axf

JavaScript Object Notation format (JSON) in row-major order
http://www.bom.gov.au/fwo/IDS60801/IDS60801.95662.json